createdAt,value
2019-03-21T00:00:05.570Z,79.88
2019-03-21T00:00:45.781Z,79.84
2019-03-21T00:01:24.538Z,79.82
2019-03-21T00:02:02.319Z,79.78
2019-03-21T00:02:38.837Z,79.69
2019-03-21T00:03:15.325Z,79.57
2019-03-21T00:03:53.511Z,79.52
2019-03-21T00:04:29.966Z,79.45
2019-03-21T00:05:07.363Z,79.41
2019-03-21T00:05:43.914Z,79.36
2019-03-21T00:06:20.480Z,79.23
2019-03-21T00:06:56.885Z,79.11
2019-03-21T00:07:33.297Z,79.06
2019-03-21T00:08:11.379Z,79.01
2019-03-21T00:08:48.269Z,79.02
2019-03-21T00:09:24.720Z,78.99
2019-03-21T00:10:42.019Z,78.96
2019-03-21T00:11:52.035Z,78.89
2019-03-21T00:12:28.459Z,78.83
2019-03-21T00:13:04.884Z,78.70
2019-03-21T00:13:41.357Z,78.56
2019-03-21T00:14:22.292Z,78.41
2019-03-21T00:15:27.821Z,78.31
2019-03-21T00:16:04.972Z,78.22
2019-03-21T00:16:41.554Z,78.08
2019-03-21T00:17:18.911Z,77.90
2019-03-21T00:17:59.828Z,77.79
2019-03-21T00:18:36.282Z,77.73
2019-03-21T00:19:12.755Z,77.59
2019-03-21T00:19:49.143Z,77.44
2019-03-21T00:20:25.604Z,77.28
2019-03-21T00:21:02.190Z,77.17
2019-03-21T00:21:38.600Z,76.98
2019-03-21T00:22:15.032Z,76.73
2019-03-21T00:22:51.441Z,76.52
2019-03-21T00:23:29.047Z,76.36
2019-03-21T00:24:05.625Z,76.19
2019-03-21T00:24:42.102Z,76.06
2019-03-21T00:25:20.816Z,75.93
2019-03-21T00:25:57.186Z,75.78
2019-03-21T00:26:33.632Z,75.61
2019-03-21T00:27:10.175Z,75.43
2019-03-21T00:27:47.408Z,75.24
2019-03-21T00:28:23.864Z,74.58
2019-03-21T00:29:00.419Z,74.58
2019-03-21T00:29:36.873Z,74.44
2019-03-21T00:30:16.913Z,74.44
2019-03-21T00:30:53.484Z,74.87
2019-03-21T00:31:30.044Z,74.87
2019-03-21T00:32:06.490Z,74.36
2019-03-21T00:32:42.968Z,73.69
2019-03-21T00:33:19.537Z,73.53
2019-03-21T00:33:57.782Z,72.99
2019-03-21T00:34:34.329Z,72.36
2019-03-21T00:35:13.759Z,72.36
2019-03-21T00:35:50.432Z,71.91
2019-03-21T00:36:29.031Z,71.69
2019-03-21T00:37:05.517Z,71.69
2019-03-21T00:37:42.618Z,71.55
2019-03-21T00:38:19.043Z,71.58
2019-03-21T00:38:55.519Z,72.02
2019-03-21T00:39:33.077Z,72.02
2019-03-21T00:40:12.380Z,71.22
2019-03-21T00:40:48.841Z,71.06
2019-03-21T00:41:26.162Z,70.96
2019-03-21T00:42:02.622Z,70.96
2019-03-21T00:42:39.669Z,70.20
2019-03-21T00:43:16.351Z,70.20
2019-03-21T00:43:52.804Z,70.45
2019-03-21T00:44:29.951Z,69.92
2019-03-21T00:45:06.742Z,69.92
2019-03-21T00:45:44.343Z,69.89
2019-03-21T00:46:20.922Z,69.70
2019-03-21T00:46:57.413Z,69.46
2019-03-21T00:47:36.142Z,69.06
2019-03-21T00:48:15.181Z,69.03
2019-03-21T00:48:51.564Z,68.89
2019-03-21T00:49:28.095Z,68.56
2019-03-21T00:50:04.673Z,68.51
2019-03-21T00:50:41.298Z,68.38
2019-03-21T00:51:18.294Z,68.14
2019-03-21T00:51:55.001Z,67.92
2019-03-21T00:52:31.674Z,67.74
2019-03-21T00:53:09.717Z,67.61
2019-03-21T00:53:46.357Z,67.56
2019-03-21T00:54:22.808Z,67.22
2019-03-21T00:55:01.959Z,67.14
2019-03-21T00:55:40.007Z,67.01
2019-03-21T00:56:16.499Z,66.87
2019-03-21T00:56:53.459Z,66.45
2019-03-21T00:57:34.650Z,66.22
2019-03-21T00:58:11.832Z,66.24
2019-03-21T00:58:48.991Z,66.35
2019-03-21T00:59:26.266Z,66.16
2019-03-21T01:00:03.645Z,65.90
2019-03-21T01:00:54.331Z,65.87
2019-03-21T01:01:33.959Z,65.79
2019-03-21T01:02:12.884Z,65.71
2019-03-21T01:02:50.746Z,65.62
2019-03-21T01:03:27.369Z,65.55
2019-03-21T01:04:06.055Z,65.51
2019-03-21T01:04:42.744Z,65.49
2019-03-21T01:05:19.362Z,65.23
2019-03-21T01:05:58.811Z,64.99
2019-03-21T01:06:35.813Z,64.89
2019-03-21T01:07:12.655Z,64.46
2019-03-21T01:07:51.923Z,64.28
2019-03-21T01:08:29.386Z,64.19
2019-03-21T01:09:11.721Z,64.17
2019-03-21T01:09:48.203Z,64.27
2019-03-21T01:10:25.997Z,63.74
2019-03-21T01:11:04.535Z,63.59
2019-03-21T01:11:44.597Z,63.68
2019-03-21T01:12:24.077Z,63.55
2019-03-21T01:13:01.286Z,63.39
2019-03-21T01:13:40.360Z,63.38
2019-03-21T01:14:29.438Z,63.19
2019-03-21T01:15:01.300Z,62.71
2019-03-21T01:15:42.663Z,62.58
2019-03-21T01:16:20.756Z,62.29
2019-03-21T01:16:57.751Z,62.21
2019-03-21T01:17:35.498Z,62.32
2019-03-21T01:18:12.468Z,62.00
2019-03-21T01:18:50.168Z,61.49
2019-03-21T01:19:26.617Z,61.34
2019-03-21T01:20:08.052Z,61.13
2019-03-21T01:20:46.277Z,61.11
2019-03-21T01:21:30.048Z,61.12
2019-03-21T01:22:08.778Z,61.03
2019-03-21T01:22:45.363Z,61.03
2019-03-21T01:23:24.492Z,60.98
2019-03-21T01:24:01.719Z,60.85
2019-03-21T01:24:40.189Z,60.90
2019-03-21T01:25:29.126Z,60.76
2019-03-21T01:26:08.661Z,60.73
2019-03-21T01:26:48.350Z,60.67
2019-03-21T01:27:33.563Z,60.73
2019-03-21T01:28:11.358Z,60.63
2019-03-21T01:28:49.592Z,60.18
2019-03-21T01:29:26.008Z,59.69
2019-03-21T01:30:02.606Z,59.34
2019-03-21T01:30:43.516Z,59.47
2019-03-21T01:31:24.204Z,59.82
2019-03-21T01:32:02.232Z,59.74
2019-03-21T01:32:39.379Z,59.66
2019-03-21T01:33:19.305Z,59.50
2019-03-21T01:33:58.432Z,59.04
2019-03-21T01:34:36.888Z,59.08
2019-03-21T01:35:14.191Z,59.17
2019-03-21T01:35:59.106Z,59.18
2019-03-21T01:36:36.394Z,59.39
2019-03-21T01:37:14.771Z,59.21
2019-03-21T01:37:51.248Z,58.98
2019-03-21T01:38:38.600Z,58.70
2019-03-21T01:39:16.951Z,58.79
2019-03-21T01:39:54.503Z,58.81
2019-03-21T01:40:31.938Z,58.88
2019-03-21T01:41:12.277Z,59.13
2019-03-21T01:41:52.021Z,59.16
2019-03-21T01:42:34.519Z,59.11
2019-03-21T01:43:10.970Z,58.96
2019-03-21T01:43:51.989Z,58.79
2019-03-21T01:44:40.539Z,58.62
2019-03-21T01:45:13.437Z,58.55
2019-03-21T01:45:54.445Z,58.48
2019-03-21T01:47:26.983Z,57.55
2019-03-21T01:48:06.402Z,57.54
2019-03-21T01:48:43.574Z,57.45
2019-03-21T01:49:20.039Z,57.38
2019-03-21T01:49:56.467Z,57.01
2019-03-21T01:50:33.721Z,56.71
2019-03-21T01:51:10.235Z,56.54
2019-03-21T01:51:48.943Z,56.28
2019-03-21T01:52:26.074Z,56.18
2019-03-21T01:53:04.727Z,56.00
2019-03-21T01:53:41.210Z,56.05
2019-03-21T01:54:18.704Z,55.96
2019-03-21T01:55:58.465Z,55.90
2019-03-21T01:56:37.727Z,55.66
2019-03-21T01:57:31.959Z,55.62
2019-03-21T01:58:18.075Z,55.59
2019-03-21T01:58:55.722Z,55.59
2019-03-21T01:59:33.171Z,55.63
2019-03-21T02:00:17.178Z,55.55
2019-03-21T02:00:56.691Z,55.59
2019-03-21T02:01:35.274Z,55.77
2019-03-21T02:02:13.703Z,55.83
2019-03-21T02:02:51.700Z,55.90
2019-03-21T02:03:28.666Z,55.76
2019-03-21T02:04:05.061Z,55.62
2019-03-21T02:04:41.469Z,55.29
2019-03-21T02:05:19.442Z,55.31
2019-03-21T02:05:56.727Z,55.33
2019-03-21T02:06:34.034Z,55.26
2019-03-21T02:07:11.455Z,55.17
2019-03-21T02:07:47.912Z,54.98
2019-03-21T02:08:24.412Z,55.10
2019-03-21T02:09:05.259Z,55.06
2019-03-21T02:10:39.096Z,55.05
2019-03-21T02:11:16.059Z,54.96
2019-03-21T02:11:52.514Z,54.83
2019-03-21T02:12:31.114Z,54.84
2019-03-21T02:13:09.670Z,54.97
2019-03-21T02:13:50.552Z,54.97
2019-03-21T02:14:27.007Z,54.92
2019-03-21T02:15:04.005Z,54.73
2019-03-21T02:15:43.821Z,54.67
2019-03-21T02:16:25.286Z,54.64
2019-03-21T02:17:04.832Z,54.96
2019-03-21T02:17:44.200Z,54.87
2019-03-21T02:18:21.364Z,55.20
2019-03-21T02:18:58.419Z,55.33
2019-03-21T02:19:52.630Z,55.50
2019-03-21T02:20:29.860Z,56.01
2019-03-21T02:21:15.368Z,56.32
2019-03-21T02:21:51.817Z,55.98
2019-03-21T02:22:28.401Z,55.50
2019-03-21T02:23:05.064Z,55.24
2019-03-21T02:23:45.835Z,55.21
2019-03-21T02:24:22.298Z,55.25
2019-03-21T02:24:59.269Z,55.57
2019-03-21T02:25:37.868Z,56.20
2019-03-21T02:26:18.712Z,56.82
2019-03-21T02:27:04.247Z,57.23
2019-03-21T02:28:37.769Z,58.01
2019-03-21T02:29:14.821Z,58.53
2019-03-21T02:29:52.466Z,58.87
2019-03-21T02:30:39.993Z,59.13
2019-03-21T02:31:20.518Z,59.22
2019-03-21T02:32:04.319Z,59.65
2019-03-21T02:32:45.246Z,59.90
2019-03-21T02:33:28.930Z,60.38
2019-03-21T02:34:05.397Z,60.84
2019-03-21T02:34:43.479Z,61.43
2019-03-21T02:37:19.978Z,62.08
2019-03-21T02:37:56.442Z,61.61
2019-03-21T02:38:32.966Z,61.02
2019-03-21T02:39:14.114Z,60.78
2019-03-21T02:40:08.377Z,60.48
2019-03-21T02:40:54.957Z,60.08
2019-03-21T02:41:32.126Z,59.56
2019-03-21T02:42:18.184Z,59.18
2019-03-21T02:42:55.507Z,58.82
2019-03-21T02:43:32.928Z,58.60
2019-03-21T02:44:09.426Z,58.01
2019-03-21T02:44:50.310Z,57.61
2019-03-21T02:45:31.520Z,57.42
2019-03-21T02:46:08.078Z,57.23
2019-03-21T02:46:52.007Z,56.98
2019-03-21T02:47:28.402Z,56.77
2019-03-21T02:48:06.651Z,56.48
2019-03-21T02:48:44.917Z,56.31
2019-03-21T02:49:23.439Z,56.08
2019-03-21T02:50:04.499Z,55.78
2019-03-21T02:50:41.626Z,55.59
2019-03-21T02:52:14.269Z,54.80
2019-03-21T02:52:53.945Z,54.65
2019-03-21T02:53:31.019Z,54.54
2019-03-21T02:54:11.561Z,54.32
2019-03-21T02:54:48.090Z,54.01
2019-03-21T02:55:29.443Z,53.88
2019-03-21T02:56:06.527Z,53.51
2019-03-21T02:56:45.151Z,53.12
2019-03-21T02:57:25.943Z,53.13
2019-03-21T02:59:01.044Z,53.23
2019-03-21T02:59:38.294Z,53.05
2019-03-21T03:00:29.239Z,52.82
2019-03-21T03:01:05.732Z,52.70
2019-03-21T03:01:42.146Z,52.66
2019-03-21T03:02:21.312Z,53.00
2019-03-21T03:03:57.774Z,52.99
2019-03-21T03:04:39.827Z,53.04
2019-03-21T03:05:20.542Z,52.81
2019-03-21T03:06:06.652Z,52.91
2019-03-21T03:06:43.635Z,52.39
2019-03-21T03:07:23.385Z,52.27
2019-03-21T03:08:00.351Z,52.28
2019-03-21T03:08:39.251Z,52.39
2019-03-21T03:09:19.657Z,52.57
2019-03-21T03:10:00.660Z,52.85
2019-03-21T03:10:42.416Z,52.77
2019-03-21T03:12:17.657Z,52.58
2019-03-21T03:13:50.526Z,52.43
2019-03-21T03:14:29.103Z,52.00
2019-03-21T03:15:22.557Z,51.89
2019-03-21T03:15:59.023Z,51.79
2019-03-21T03:16:44.116Z,51.60
2019-03-21T03:17:22.392Z,51.77
2019-03-21T03:17:58.778Z,52.06
2019-03-21T03:18:44.151Z,52.14
2019-03-21T03:19:20.705Z,52.14
2019-03-21T03:20:04.487Z,52.36
2019-03-21T03:20:45.524Z,52.37
2019-03-21T03:21:22.306Z,52.64
2019-03-21T03:22:03.072Z,52.50
2019-03-21T03:22:39.582Z,51.92
2019-03-21T03:23:20.614Z,51.84
2019-03-21T03:24:03.840Z,51.68
2019-03-21T03:24:43.048Z,51.42
2019-03-21T03:25:22.677Z,51.03
2019-03-21T03:25:59.702Z,51.03
2019-03-21T03:26:39.479Z,51.14
2019-03-21T03:27:16.930Z,51.12
2019-03-21T03:27:58.404Z,51.06
2019-03-21T03:28:35.766Z,51.19
2019-03-21T03:29:16.667Z,51.43
2019-03-21T03:29:53.823Z,51.31
2019-03-21T03:30:33.142Z,51.26
2019-03-21T03:31:13.263Z,50.76
2019-03-21T03:31:50.269Z,50.64
2019-03-21T03:32:28.330Z,50.43
2019-03-21T03:33:05.420Z,50.69
2019-03-21T03:33:42.856Z,50.77
2019-03-21T03:34:21.128Z,50.74
2019-03-21T03:34:59.674Z,50.43
2019-03-21T03:35:36.707Z,50.18
2019-03-21T03:36:17.506Z,50.17
2019-03-21T03:36:54.754Z,49.82
2019-03-21T03:37:31.378Z,49.72
2019-03-21T03:38:09.472Z,49.69
2019-03-21T03:38:50.425Z,49.92
2019-03-21T03:39:27.570Z,49.50
2019-03-21T03:41:01.038Z,48.35
2019-03-21T03:41:37.665Z,47.92
2019-03-21T03:42:15.039Z,47.89
2019-03-21T03:42:54.176Z,47.83
2019-03-21T03:43:31.863Z,47.86
2019-03-21T03:44:13.240Z,47.43
2019-03-21T03:44:49.744Z,45.77
2019-03-21T03:45:37.392Z,45.37
2019-03-21T03:46:09.554Z,45.25
2019-03-21T03:46:47.106Z,45.55
2019-03-21T03:48:20.079Z,46.54
2019-03-21T03:48:56.812Z,46.89
2019-03-21T03:49:33.231Z,47.29
2019-03-21T03:50:15.768Z,47.26
2019-03-21T03:50:52.847Z,47.33
2019-03-21T03:51:32.341Z,45.48
2019-03-21T03:52:11.672Z,43.71
2019-03-21T03:52:50.351Z,43.59
2019-03-21T03:53:26.855Z,44.01
2019-03-21T03:54:04.105Z,44.29
2019-03-21T03:54:50.406Z,44.39
2019-03-21T03:55:27.476Z,44.58
2019-03-21T03:56:21.560Z,44.88
2019-03-21T03:56:59.084Z,45.58
2019-03-21T03:57:39.647Z,45.67
2019-03-21T03:58:19.313Z,45.36
2019-03-21T03:58:58.609Z,44.40
2019-03-21T03:59:35.224Z,44.12
2019-03-21T04:00:14.984Z,44.32
2019-03-21T04:00:53.429Z,44.43
2019-03-21T04:01:31.343Z,44.95
2019-03-21T04:02:13.452Z,45.10
2019-03-21T04:02:52.241Z,44.95
2019-03-21T04:03:29.305Z,45.05
2019-03-21T04:04:15.154Z,45.14
2019-03-21T04:04:52.252Z,45.57
2019-03-21T04:05:30.471Z,45.91
2019-03-21T04:06:08.866Z,46.00
2019-03-21T04:06:46.552Z,46.04
2019-03-21T04:07:26.620Z,45.86
2019-03-21T04:08:03.138Z,45.88
2019-03-21T04:08:42.555Z,45.71
2019-03-21T04:09:22.908Z,45.54
2019-03-21T04:10:03.487Z,45.47
2019-03-21T04:10:44.101Z,45.26
2019-03-21T04:11:23.214Z,45.00
2019-03-21T04:12:08.888Z,43.98
2019-03-21T04:12:45.646Z,43.77
2019-03-21T04:13:23.721Z,43.68
2019-03-21T04:14:09.077Z,43.57
2019-03-21T04:14:47.328Z,44.09
2019-03-21T04:15:23.890Z,44.24
2019-03-21T04:16:01.209Z,44.48
2019-03-21T04:16:38.186Z,44.47
2019-03-21T04:17:21.242Z,44.29
2019-03-21T04:18:03.866Z,44.08
2019-03-21T04:18:40.877Z,43.83
2019-03-21T04:19:22.839Z,44.00
2019-03-21T04:20:57.181Z,43.09
2019-03-21T04:21:37.404Z,42.46
2019-03-21T04:23:09.788Z,42.37
2019-03-21T04:23:50.631Z,41.87
2019-03-21T04:24:27.227Z,41.59
2019-03-21T04:25:05.584Z,41.66
2019-03-21T04:26:04.706Z,41.53
2019-03-21T04:26:43.814Z,41.72
2019-03-21T04:27:20.251Z,42.00
2019-03-21T04:27:59.909Z,41.91
2019-03-21T04:28:40.358Z,41.89
2019-03-21T04:29:26.843Z,42.10
2019-03-21T04:30:05.568Z,42.50
2019-03-21T04:30:44.365Z,42.58
2019-03-21T04:32:19.757Z,42.63
2019-03-21T04:33:06.907Z,42.54
2019-03-21T04:33:43.653Z,42.56
2019-03-21T04:34:31.323Z,42.62
2019-03-21T04:35:15.622Z,42.74
2019-03-21T04:35:52.600Z,43.07
2019-03-21T04:36:31.719Z,42.85
2019-03-21T04:37:08.153Z,42.76
2019-03-21T04:37:46.569Z,43.38
2019-03-21T04:38:25.225Z,43.32
2019-03-21T04:39:03.256Z,43.49
2019-03-21T04:39:42.923Z,43.62
2019-03-21T04:40:21.906Z,43.42
2019-03-21T04:41:05.466Z,43.42
2019-03-21T04:41:51.544Z,43.65
2019-03-21T04:42:32.159Z,43.77
2019-03-21T04:43:08.552Z,44.13
2019-03-21T04:43:44.986Z,44.18
2019-03-21T04:44:22.144Z,43.68
2019-03-21T04:45:01.879Z,43.26
2019-03-21T04:46:44.646Z,42.23
2019-03-21T04:47:23.558Z,42.20
2019-03-21T04:48:01.000Z,41.54
2019-03-21T04:48:38.181Z,41.19
2019-03-21T04:49:16.561Z,41.79
2019-03-21T04:49:55.468Z,41.77
2019-03-21T04:50:32.807Z,41.50
2019-03-21T04:51:13.718Z,40.88
2019-03-21T04:51:53.817Z,40.52
2019-03-21T04:52:31.004Z,40.29
2019-03-21T04:53:07.727Z,39.19
2019-03-21T04:53:49.212Z,38.29
2019-03-21T04:54:27.180Z,37.36
2019-03-21T04:55:08.630Z,39.93
2019-03-21T04:55:47.950Z,40.61
2019-03-21T04:56:39.226Z,40.91
2019-03-21T04:57:20.477Z,41.38
2019-03-21T04:57:57.094Z,41.21
2019-03-21T04:58:34.305Z,40.12
2019-03-21T04:59:10.731Z,39.96
2019-03-21T04:59:50.252Z,39.69
2019-03-21T05:00:29.970Z,39.45
2019-03-21T05:01:07.360Z,39.36
2019-03-21T05:01:52.738Z,38.62
2019-03-21T05:02:33.485Z,38.46
2019-03-21T05:03:12.903Z,38.54
2019-03-21T05:03:49.898Z,37.99
2019-03-21T05:04:26.472Z,37.83
2019-03-21T05:05:05.598Z,37.55
2019-03-21T05:05:57.948Z,36.22
2019-03-21T05:06:35.026Z,35.06
2019-03-21T05:07:13.614Z,34.87
2019-03-21T05:07:51.136Z,35.10
2019-03-21T05:08:35.685Z,36.33
2019-03-21T05:09:16.987Z,36.69
2019-03-21T05:09:54.457Z,37.72
2019-03-21T05:10:31.643Z,37.66
2019-03-21T05:11:08.179Z,37.32
2019-03-21T05:11:48.848Z,36.78
2019-03-21T05:12:25.331Z,36.25
2019-03-21T05:14:54.630Z,36.95
2019-03-21T05:15:36.245Z,36.20
2019-03-21T05:16:14.935Z,36.18
2019-03-21T05:16:50.986Z,34.89
2019-03-21T05:17:27.894Z,34.28
2019-03-21T05:18:07.191Z,34.66
2019-03-21T05:18:47.153Z,34.87
2019-03-21T05:19:26.477Z,35.29
2019-03-21T05:20:07.356Z,35.87
2019-03-21T05:20:48.464Z,36.58
2019-03-21T05:21:24.973Z,37.02
2019-03-21T05:22:07.767Z,36.94
2019-03-21T05:22:44.235Z,37.00
2019-03-21T05:23:22.362Z,38.09
2019-03-21T05:24:02.105Z,38.27
2019-03-21T05:24:40.248Z,37.09
2019-03-21T05:25:16.919Z,36.79
2019-03-21T05:26:52.072Z,36.82
2019-03-21T05:27:29.065Z,36.89
2019-03-21T05:28:07.850Z,36.35
2019-03-21T05:28:46.975Z,36.29
2019-03-21T05:30:29.562Z,36.15
2019-03-21T05:31:08.989Z,35.77
2019-03-21T05:31:49.817Z,34.47
2019-03-21T05:33:26.227Z,31.63
2019-03-21T05:34:02.657Z,30.72
2019-03-21T05:34:39.099Z,29.35
2019-03-21T05:35:15.668Z,28.85
2019-03-21T05:35:56.595Z,28.96
2019-03-21T05:36:34.869Z,29.27
2019-03-21T05:37:14.082Z,30.09
2019-03-21T05:37:52.806Z,31.44
2019-03-21T05:38:30.038Z,31.93
2019-03-21T05:39:11.817Z,30.90
2019-03-21T05:39:50.227Z,30.62
2019-03-21T05:40:30.783Z,30.43
2019-03-21T05:41:07.659Z,29.92
2019-03-21T05:41:45.136Z,29.31
2019-03-21T05:42:23.383Z,28.63
2019-03-21T05:43:03.919Z,28.00
2019-03-21T05:43:58.542Z,27.72
2019-03-21T05:44:42.078Z,26.46
2019-03-21T05:45:18.719Z,26.69
2019-03-21T05:46:04.058Z,27.22
2019-03-21T05:46:49.313Z,28.22
2019-03-21T05:47:25.972Z,28.83
2019-03-21T05:48:02.900Z,28.46
2019-03-21T05:48:40.365Z,28.21
2019-03-21T05:49:16.833Z,27.33
2019-03-21T05:49:53.986Z,26.73
2019-03-21T05:51:31.369Z,28.12
2019-03-21T05:52:10.959Z,28.40
2019-03-21T05:52:47.601Z,28.48
2019-03-21T05:53:28.503Z,28.33
2019-03-21T05:54:07.132Z,29.74
2019-03-21T05:54:43.679Z,30.43
2019-03-21T05:55:21.262Z,30.68
2019-03-21T05:56:00.038Z,30.85
2019-03-21T05:56:42.389Z,30.76
2019-03-21T05:57:18.861Z,30.47
2019-03-21T05:57:58.918Z,29.02
2019-03-21T05:58:44.151Z,27.96
2019-03-21T05:59:22.325Z,27.85
2019-03-21T05:59:59.766Z,28.08
2019-03-21T06:00:43.281Z,28.39
2019-03-21T06:01:19.681Z,27.81
2019-03-21T06:01:56.660Z,27.81
2019-03-21T06:02:33.701Z,27.83
2019-03-21T06:03:13.429Z,28.24
2019-03-21T06:03:56.158Z,28.03
2019-03-21T06:04:34.925Z,27.82
2019-03-21T06:05:15.445Z,27.65
2019-03-21T06:06:14.090Z,27.84
2019-03-21T06:07:06.265Z,28.08
2019-03-21T06:07:57.160Z,28.70
2019-03-21T06:08:44.470Z,28.54
2019-03-21T06:09:28.752Z,29.06
2019-03-21T06:10:07.390Z,28.78
2019-03-21T06:10:44.559Z,28.13
2019-03-21T06:11:20.921Z,28.23
2019-03-21T06:12:01.590Z,28.42
2019-03-21T06:12:47.152Z,28.83
2019-03-21T06:13:23.761Z,29.19
2019-03-21T06:14:07.796Z,29.56
2019-03-21T06:14:51.243Z,29.61
2019-03-21T06:15:29.809Z,29.73
2019-03-21T06:16:13.996Z,30.31
2019-03-21T06:16:50.441Z,30.41
2019-03-21T06:17:27.214Z,30.02
2019-03-21T06:18:56.977Z,29.78
2019-03-21T06:20:06.548Z,29.79
2019-03-21T06:20:59.777Z,29.66
2019-03-21T06:22:14.143Z,30.31
2019-03-21T06:23:46.288Z,30.44
2019-03-21T06:24:36.434Z,30.78
2019-03-21T06:25:39.430Z,31.26
2019-03-21T06:26:37.154Z,31.08
2019-03-21T06:27:37.332Z,31.81
2019-03-21T06:28:16.622Z,32.11
2019-03-21T06:28:53.262Z,32.85
2019-03-21T06:29:29.844Z,32.90
2019-03-21T06:30:09.616Z,33.09
2019-03-21T06:30:47.640Z,33.07
2019-03-21T06:31:24.193Z,33.03
2019-03-21T06:32:01.639Z,32.78
2019-03-21T06:32:38.071Z,32.67
2019-03-21T06:33:20.216Z,32.84
2019-03-21T06:34:04.118Z,33.29
2019-03-21T06:34:44.536Z,33.26
2019-03-21T06:35:26.954Z,33.36
2019-03-21T06:36:59.855Z,33.25
2019-03-21T06:37:36.481Z,33.01
2019-03-21T06:38:12.915Z,33.10
2019-03-21T06:38:50.935Z,33.60
2019-03-21T06:39:29.674Z,33.83
2019-03-21T06:40:15.380Z,33.48
2019-03-21T06:40:54.429Z,32.48
2019-03-21T06:41:33.789Z,32.31
2019-03-21T06:42:10.230Z,32.47
2019-03-21T06:42:47.193Z,32.83
2019-03-21T06:43:25.487Z,33.42
2019-03-21T06:44:02.073Z,33.59
2019-03-21T06:44:41.517Z,33.53
2019-03-21T06:45:17.970Z,33.30
2019-03-21T06:45:56.217Z,33.17
2019-03-21T06:46:32.618Z,33.01
2019-03-21T06:47:09.260Z,32.65
2019-03-21T06:47:45.661Z,32.65
2019-03-21T06:48:30.902Z,32.23
2019-03-21T06:49:08.365Z,32.70
2019-03-21T06:49:46.582Z,33.77
2019-03-21T06:50:25.161Z,33.55
2019-03-21T06:51:03.909Z,33.68
2019-03-21T06:52:35.683Z,33.15
2019-03-21T06:53:12.100Z,32.72
2019-03-21T06:53:48.749Z,32.48
2019-03-21T06:54:25.764Z,32.87
2019-03-21T06:55:11.926Z,32.73
2019-03-21T06:56:48.088Z,32.94
2019-03-21T06:57:24.459Z,33.51
2019-03-21T06:58:01.645Z,33.56
2019-03-21T06:58:38.122Z,33.86
2019-03-21T06:59:14.628Z,32.73
2019-03-21T06:59:53.366Z,32.63
2019-03-21T07:00:30.384Z,32.87
2019-03-21T07:01:06.855Z,33.32
2019-03-21T07:01:44.026Z,33.45
2019-03-21T07:02:25.707Z,33.24
2019-03-21T07:03:03.009Z,32.91
2019-03-21T07:03:43.788Z,32.82
2019-03-21T07:04:29.024Z,33.12
2019-03-21T07:05:06.799Z,32.16
2019-03-21T07:05:43.304Z,31.70
2019-03-21T07:06:20.805Z,31.91
2019-03-21T07:07:07.532Z,32.48
2019-03-21T07:07:37.233Z,32.63
2019-03-21T07:08:15.854Z,32.96
2019-03-21T07:09:07.032Z,32.59
2019-03-21T07:09:43.482Z,32.65
2019-03-21T07:10:19.941Z,32.70
2019-03-21T07:10:58.345Z,32.19
2019-03-21T07:11:34.828Z,32.08
2019-03-21T07:12:11.540Z,32.55
2019-03-21T07:12:48.476Z,32.93
2019-03-21T07:13:25.647Z,33.19
2019-03-21T07:14:05.712Z,33.30
2019-03-21T07:14:46.580Z,33.69
2019-03-21T07:15:23.227Z,33.75
2019-03-21T07:15:59.761Z,33.77
2019-03-21T07:16:37.012Z,33.77
2019-03-21T07:17:14.201Z,33.76
2019-03-21T07:17:50.633Z,33.75
2019-03-21T07:18:39.847Z,33.67
2019-03-21T07:19:16.947Z,33.31
2019-03-21T07:19:53.381Z,33.40
2019-03-21T07:20:29.923Z,33.29
2019-03-21T07:21:06.369Z,33.35
2019-03-21T07:21:42.777Z,33.22
2019-03-21T07:22:19.234Z,33.19
2019-03-21T07:23:55.641Z,33.13
2019-03-21T07:24:43.048Z,33.24
2019-03-21T07:25:24.189Z,33.04
2019-03-21T07:26:01.598Z,32.93
2019-03-21T07:26:38.952Z,32.76
2019-03-21T07:27:18.500Z,32.66
2019-03-21T07:27:59.640Z,32.71
2019-03-21T07:28:38.606Z,32.59
2019-03-21T07:29:18.166Z,32.67
2019-03-21T07:29:55.326Z,33.17
2019-03-21T07:30:32.349Z,33.34
2019-03-21T07:31:12.535Z,33.70
2019-03-21T07:31:49.994Z,33.80
2019-03-21T07:32:33.305Z,34.05
2019-03-21T07:33:18.290Z,33.92
2019-03-21T07:33:56.965Z,33.37
2019-03-21T07:34:33.424Z,32.80
2019-03-21T07:35:10.687Z,32.85
2019-03-21T07:35:47.158Z,32.89
2019-03-21T07:36:26.159Z,33.09
2019-03-21T07:37:03.569Z,33.42
2019-03-21T07:37:40.691Z,33.59
2019-03-21T07:38:21.565Z,33.45
2019-03-21T07:39:00.896Z,33.29
2019-03-21T07:39:38.193Z,33.33
2019-03-21T07:40:14.920Z,33.32
2019-03-21T07:40:52.100Z,32.95
2019-03-21T07:41:28.620Z,32.92
2019-03-21T07:42:05.156Z,33.10
2019-03-21T07:42:43.950Z,33.46
2019-03-21T07:43:23.381Z,33.55
2019-03-21T07:44:02.569Z,33.61
2019-03-21T07:44:41.130Z,33.65
2019-03-21T07:45:17.594Z,33.56
2019-03-21T07:45:54.754Z,33.48
2019-03-21T07:46:32.239Z,33.51
2019-03-21T07:47:13.138Z,33.47
2019-03-21T07:47:47.480Z,33.34
2019-03-21T07:48:23.919Z,33.15
2019-03-21T07:49:00.345Z,33.22
2019-03-21T07:49:41.302Z,33.36
2019-03-21T07:50:19.088Z,33.38
2019-03-21T07:50:55.802Z,33.50
2019-03-21T07:51:34.263Z,33.82
2019-03-21T07:52:10.953Z,33.62
2019-03-21T07:52:47.491Z,33.85
2019-03-21T07:53:33.035Z,34.10
2019-03-21T07:54:11.652Z,34.18
2019-03-21T07:54:48.715Z,34.14
2019-03-21T07:55:25.196Z,34.03
2019-03-21T07:56:03.925Z,34.08
2019-03-21T07:56:42.606Z,33.89
2019-03-21T07:57:20.202Z,33.77
2019-03-21T07:58:03.948Z,33.67
2019-03-21T07:58:44.940Z,33.77
2019-03-21T07:59:23.465Z,33.81
2019-03-21T08:00:00.406Z,33.88
2019-03-21T08:00:39.527Z,34.05
2019-03-21T08:01:16.756Z,34.12
2019-03-21T08:01:54.089Z,34.67
2019-03-21T08:03:27.619Z,34.74
2019-03-21T08:04:04.090Z,34.68
2019-03-21T08:04:42.289Z,34.67
2019-03-21T08:05:19.024Z,34.60
2019-03-21T08:05:55.456Z,34.46
2019-03-21T08:06:34.813Z,34.39
2019-03-21T08:07:11.854Z,34.13
2019-03-21T08:07:56.843Z,33.75
2019-03-21T08:08:36.783Z,33.71
2019-03-21T08:09:20.056Z,33.94
2019-03-21T08:09:57.222Z,34.28
2019-03-21T08:10:34.094Z,34.55
2019-03-21T08:11:10.721Z,34.60
2019-03-21T08:11:47.328Z,34.24
2019-03-21T08:12:32.522Z,34.62
2019-03-21T08:13:23.840Z,34.78
2019-03-21T08:14:02.086Z,34.65
2019-03-21T08:14:40.763Z,34.33
2019-03-21T08:15:17.407Z,34.27
2019-03-21T08:15:54.943Z,34.23
2019-03-21T08:16:40.372Z,34.43
2019-03-21T08:17:18.006Z,34.40
2019-03-21T08:17:54.984Z,34.51
2019-03-21T08:18:42.484Z,34.37
2019-03-21T08:19:18.932Z,34.41
2019-03-21T08:19:55.550Z,34.53
2019-03-21T08:20:31.960Z,34.50
2019-03-21T08:21:11.512Z,34.62
2019-03-21T08:21:48.258Z,34.80
2019-03-21T08:22:24.881Z,34.84
2019-03-21T08:23:03.869Z,34.46
2019-03-21T08:23:41.520Z,33.99
2019-03-21T08:24:18.138Z,33.75
2019-03-21T08:24:56.837Z,33.98
2019-03-21T08:25:34.051Z,33.68
2019-03-21T08:26:12.614Z,33.58
2019-03-21T08:26:49.984Z,33.74
2019-03-21T08:27:28.763Z,33.87
2019-03-21T08:28:05.963Z,34.22
2019-03-21T08:28:44.377Z,34.31
2019-03-21T08:29:25.169Z,34.35
2019-03-21T08:30:04.237Z,34.62
2019-03-21T08:31:03.765Z,34.59
2019-03-21T08:31:40.417Z,34.16
2019-03-21T08:32:19.606Z,34.12
2019-03-21T08:32:56.277Z,34.36
2019-03-21T08:33:32.747Z,34.94
2019-03-21T08:34:09.194Z,35.58
2019-03-21T08:34:47.689Z,35.57
2019-03-21T08:35:25.052Z,35.77
2019-03-21T08:36:03.755Z,35.47
2019-03-21T08:36:41.392Z,35.26
2019-03-21T08:37:19.711Z,35.49
2019-03-21T08:37:57.041Z,35.63
2019-03-21T08:38:36.410Z,35.73
2019-03-21T08:39:13.002Z,36.09
2019-03-21T08:39:50.329Z,35.51
2019-03-21T08:40:26.790Z,35.78
2019-03-21T08:41:06.982Z,36.02
2019-03-21T08:41:44.303Z,36.33
2019-03-21T08:42:21.636Z,36.48
2019-03-21T08:43:00.199Z,36.32
2019-03-21T08:43:36.699Z,36.52
2019-03-21T08:44:13.149Z,36.59
2019-03-21T08:44:49.692Z,37.00
2019-03-21T08:45:26.238Z,36.92
2019-03-21T08:46:02.723Z,36.59
2019-03-21T08:46:41.080Z,36.70
2019-03-21T08:47:22.018Z,36.56
2019-03-21T08:47:59.392Z,36.41
2019-03-21T08:48:35.987Z,36.82
2019-03-21T08:49:12.547Z,37.18
2019-03-21T08:49:50.924Z,37.20
2019-03-21T08:50:31.259Z,36.71
2019-03-21T08:51:09.000Z,36.38
2019-03-21T08:51:47.103Z,36.31
2019-03-21T08:52:24.149Z,36.35
2019-03-21T08:53:02.696Z,36.38
2019-03-21T08:53:39.313Z,36.32
2019-03-21T08:54:16.460Z,36.19